Latest Weather Observations for Port Macquarie Airport

IDN60801

Issued at 6:43 pm EST Monday 4 July 2022 (issued every 10 minutes, with the page automatically refreshed every 10 minutes)

About weather observations | Map of weather stations | Latest weather observations for NSW | Other Formats
Station Details ID: 060168 Name: PORT MACQUARIE AIRPORT AWS Lat: -31.43 Lon: 152.87 Height: 4.45 m
Data from the previous 72 hours. | See also: Recent months at Port Macquarie Airport
Date/Time
EST
Temp
°C
App
Temp
°C
Dew
Point
°C
Rel
Hum
%
Delta-T
°C
Wind Press
QNH
hPa
Press
MSL
hPa
Rain since
9am
mm
Dir  Spd
km/h
Gust
km/h
Spd
kts
Gust
kts
04/06:30pm 12.1 12.5 11.3 95 0.4 CALM 0 0 0 0 1013.7 1013.7 0.0
04/06:00pm 12.5 11.9 11.6 94 0.5 SW 6 9 3 5 1013.8 1013.8 0.0
04/05:30pm 12.9 13.3 11.3 90 0.8 CALM 0 0 0 0 1013.7 1013.7 0.0
04/05:00pm 14.2 14.9 12.2 88 1.1 CALM 0 0 0 0 1013.9 1013.9 0.0
04/04:30pm 15.8 16.2 11.2 74 2.5 CALM 0 0 0 0 1013.5 1013.5 0.0
04/04:00pm 16.4 16.8 11.3 72 2.7 CALM 0 0 0 0 1012.9 1012.9 0.0
04/03:30pm 17.0 17.3 10.8 67 3.3 CALM 0 0 0 0 1013.1 1013.1 0.0
04/03:00pm 17.6 17.7 10.2 62 3.9 CALM 0 0 0 0 1012.6 1012.6 0.0
04/02:30pm 17.9 17.5 9.8 59 4.3 S 2 7 1 4 1012.7 1012.7 0.0
04/02:00pm 18.4 18.2 10.3 59 4.3 SSE 2 11 1 6 1011.7 1011.7 0.0
04/01:30pm 18.0 17.9 9.6 58 4.4 CALM 0 0 0 0 1012.6 1012.6 0.0
04/01:00pm 17.6 17.2 9.8 60 4.1 NW 2 7 1 4 1012.6 1012.6 0.0
04/12:30pm 17.6 16.5 9.8 60 4.1 NW 6 11 3 6 1013.4 1013.4 0.0
04/12:00pm 17.1 15.4 10.0 63 3.7 NNW 9 13 5 7 1013.6 1013.6 0.0
04/11:30am 15.8 13.9 9.0 64 3.5 WNW 9 15 5 8 1013.1 1013.1 0.0
04/11:00am 14.6 14.1 9.2 70 2.8 W 2 7 1 4 1013.2 1013.2 0.0
04/10:30am 13.6 11.5 8.2 70 2.7 WNW 9 13 5 7 1013.9 1013.9 0.0
04/10:00am 12.6 10.6 8.7 77 1.9 NW 9 15 5 8 1014.0 1014.0 0.0
04/09:30am 11.2 9.5 8.4 83 1.4 NW 7 9 4 5 1013.5 1013.5 0.0
04/09:00am 10.6 9.0 8.0 84 1.3 NW 6 9 3 5 1013.2 1013.2 0.2
04/08:30am 10.5 8.8 8.3 86 1.1 N 7 7 4 4 1013.1 1013.1 0.2
04/08:00am 9.1 7.4 7.7 91 0.7 NW 6 9 3 5 1012.9 1012.9 0.2
04/07:30am 7.3 4.6 5.8 90 0.7 SW 9 11 5 6 1012.7 1012.7 0.0
04/07:00am 6.5 5.4 5.1 91 0.6 CALM 0 0 0 0 1012.0 1012.0 0.0
04/06:30am 7.5 5.0 6.4 93 0.5 NW 9 13 5 7 1012.5 1012.5 0.0
04/06:00am 6.8 4.7 5.9 94 0.4 WNW 6 11 3 6 1011.8 1011.8 0.0
04/05:30am 6.6 4.4 6.3 98 0.1 NW 7 11 4 6 1011.8 1011.8 0.0
04/05:00am 6.4 5.5 6.1 98 0.1 CALM 0 0 0 0 1011.7 1011.7 0.0
04/04:40am 7.5 6.9 7.4 99 0.0 CALM 0 0 0 0 1011.7 1011.7 0.0
04/04:30am 6.8 6.0 6.7 99 0.0 CALM 0 0 0 0 1011.5 1011.5 0.0
04/04:08am 6.1 5.1 5.8 98 0.1 CALM 0 0 0 0 1011.5 1011.5 0.0
04/04:00am 6.4 5.5 6.1 98 0.1 CALM 0 0 0 0 1011.4 1011.4 0.0
04/03:30am 7.6 7.0 7.3 98 0.1 CALM 0 0 0 0 1011.5 1011.5 0.0
04/03:00am 8.7 8.4 8.6 99 0.0 CALM 0 0 0 0 1011.6 1011.6 0.0
04/02:46am 9.1 8.9 9.0 99 0.0 CALM 0 0 0 0 1011.8 1011.8 0.0
04/02:38am 9.0 8.7 8.7 98 0.1 CALM 0 0 0 0 1011.7 1011.7 0.0
04/02:30am 9.1 8.8 8.8 98 0.1 CALM 0 6 0 3 1011.7 1011.7 0.0
04/02:00am 9.5 7.6 9.2 98 0.1 NW 9 13 5 7 1011.7 1011.7 0.0
04/01:30am 9.1 8.1 8.8 98 0.1 NNW 4 9 2 5 1011.6 1011.6 0.0
04/01:14am 9.4 9.2 9.1 98 0.1 CALM 0 0 0 0 1011.7 1011.7 0.0
04/01:00am 9.7 9.6 9.6 99 0.0 CALM 0 0 0 0 1011.7 1011.7 0.0
04/12:30am 9.0 8.7 8.7 98 0.1 CALM 0 0 0 0 1011.8 1011.8 0.0
04/12:00am 10.1 10.1 9.8 98 0.2 CALM 0 0 0 0 1012.1 1012.1 0.0
 
Date/Time
EST
Temp
°C
App
Temp
°C
Dew
Point
°C
Rel
Hum
%
Delta-T
°C
Wind Press
QNH
hPa
Press
MSL
hPa
Rain since
9am
mm
Dir  Spd
km/h
Gust
km/h
Spd
kts
Gust
kts
03/11:35pm 9.6 9.5 9.3 98 0.1 CALM 0 0 0 0 1012.0 1012.0 0.0
03/11:30pm 10.4 10.5 10.2 99 0.1 CALM 0 0 0 0 1012.0 1012.0 0.0
03/11:00pm 10.3 10.4 10.1 99 0.1 CALM 0 0 0 0 1012.3 1012.3 0.0
03/10:30pm 9.9 9.9 9.8 99 0.1 CALM 0 0 0 0 1012.4 1012.4 0.0
03/10:00pm 8.3 7.8 7.7 96 0.3 CALM 0 0 0 0 1012.4 1012.4 0.0
03/09:30pm 8.5 8.0 7.9 96 0.3 CALM 0 0 0 0 1012.2 1012.2 0.0
03/09:19pm 8.5 8.0 7.9 96 0.3 CALM 0 0 0 0 1012.2 1012.2 0.0
03/09:00pm 9.0 8.6 8.4 96 0.3 CALM 0 0 0 0 1012.4 1012.4 0.0
03/08:30pm 9.7 9.5 9.1 96 0.3 CALM 0 0 0 0 1012.6 1012.6 0.0
03/08:06pm 10.5 10.5 9.9 96 0.3 CALM 0 0 0 0 1012.5 1012.5 0.0
03/08:02pm 10.0 9.8 9.1 94 0.4 CALM 0 0 0 0 1012.5 1012.5 0.0
03/08:00pm 9.8 9.6 8.9 94 0.4 CALM 0 0 0 0 1012.5 1012.5 0.0
03/07:35pm 10.2 10.1 9.4 95 0.4 CALM 0 0 0 0 1012.5 1012.5 0.0
03/07:30pm 10.9 11.0 10.1 95 0.4 CALM 0 0 0 0 1012.5 1012.5 0.0
03/07:00pm 11.4 11.6 10.6 95 0.4 CALM 0 0 0 0 1012.4 1012.4 0.0
03/06:30pm 11.8 12.0 10.5 92 0.7 CALM 0 0 0 0 1012.2 1012.2 0.0
03/06:00pm 12.9 13.3 11.1 89 0.9 CALM 0 0 0 0 1012.0 1012.0 0.0
03/05:30pm 14.4 15.2 12.4 88 1.1 CALM 0 0 0 0 1011.9 1011.9 0.0
03/05:00pm 16.5 17.4 13.0 80 1.9 CALM 0 6 0 3 1012.0 1012.0 0.0
03/04:30pm 17.7 18.3 13.2 75 2.5 W 2 9 1 5 1012.0 1012.0 0.0
03/04:00pm 19.9 19.9 13.6 67 3.6 SW 6 13 3 7 1012.0 1012.0 0.0
03/03:30pm 19.6 18.6 13.5 68 3.5 SW 11 20 6 11 1011.9 1011.9 0.0
03/03:00pm 20.5 19.2 13.7 65 3.9 SW 13 20 7 11 1011.9 1011.9 0.0
03/02:30pm 20.4 20.1 14.3 68 3.5 WNW 9 13 5 7 1012.0 1012.0 0.0
03/02:00pm 19.7 18.8 13.6 68 3.5 SW 11 17 6 9 1012.2 1012.2 0.0
03/01:30pm 19.4 20.2 13.6 69 3.3 SW 2 7 1 4 1012.4 1012.4 0.0
03/01:00pm 19.7 19.9 14.3 71 3.1 WNW 6 11 3 6 1012.8 1012.8 0.0
03/12:30pm 18.6 18.3 14.3 76 2.5 WSW 9 13 5 7 1013.1 1013.1 0.0
03/12:00pm 18.5 17.4 14.2 76 2.5 WSW 13 17 7 9 1013.4 1013.4 0.0
03/11:30am 18.5 17.7 14.0 75 2.6 WSW 11 17 6 9 1013.8 1013.8 0.0
03/11:00am 18.5 17.4 14.2 76 2.5 W 13 17 7 9 1014.1 1014.1 0.0
03/10:30am 17.8 16.5 13.7 77 2.3 WSW 13 20 7 11 1014.5 1014.5 0.0
03/10:00am 17.1 15.9 12.8 76 2.4 W 11 17 6 9 1014.7 1014.7 0.0
03/09:30am 16.3 15.1 12.7 79 2.0 W 11 17 6 9 1014.9 1014.9 0.0
03/09:00am 15.2 13.4 12.2 82 1.6 W 13 17 7 9 1015.0 1015.0 16.4
03/08:30am 14.7 12.9 12.2 85 1.4 W 13 17 7 9 1014.9 1014.9 16.4
03/08:00am 13.7 11.8 11.8 88 1.0 W 13 17 7 9 1015.0 1015.0 16.4
03/07:30am 12.9 11.8 11.8 93 0.6 W 9 13 5 7 1014.9 1014.9 16.4
03/07:00am 12.1 11.2 11.3 95 0.4 WSW 7 11 4 6 1014.9 1014.9 16.4
03/06:30am 12.3 11.1 11.5 95 0.4 W 9 15 5 8 1014.7 1014.7 16.2
03/06:00am 12.7 11.2 11.8 94 0.5 W 11 15 6 8 1014.6 1014.6 16.2
03/05:30am 11.9 10.6 11.4 97 0.3 W 9 13 5 7 1014.2 1014.2 16.2
03/05:00am 12.2 11.4 11.6 96 0.3 WSW 7 9 4 5 1014.1 1014.1 16.2
03/04:30am 12.8 12.1 12.0 95 0.4 WNW 7 11 4 6 1014.2 1014.2 16.2
03/04:00am 13.1 11.0 12.3 95 0.4 W 15 24 8 13 1014.2 1014.2 16.2
03/03:30am 13.3 12.4 12.7 96 0.3 W 9 19 5 10 1014.7 1014.7 16.2
03/03:00am 13.4 12.2 12.8 96 0.3 WNW 11 17 6 9 1014.9 1014.9 16.2
03/02:30am 13.4 11.4 12.8 96 0.3 W 15 20 8 11 1015.0 1015.0 16.2
03/02:00am 13.4 11.8 12.8 96 0.3 WNW 13 17 7 9 1015.2 1015.2 16.2
03/01:36am 13.4 12.2 12.9 97 0.3 W 11 13 6 7 1015.5 1015.5 16.2
03/01:30am 13.4 12.2 12.9 97 0.3 W 11 19 6 10 1015.5 1015.5 16.2
03/01:16am 13.4 12.2 12.9 97 0.3 W 11 15 6 8 1015.4 1015.4 16.0
03/01:00am 13.4 12.2 12.9 97 0.3 W 11 17 6 9 1015.6 1015.6 16.0
03/12:52am 13.4 12.6 12.9 97 0.3 WNW 9 15 5 8 1015.6 1015.6 16.0
03/12:39am 13.4 12.6 12.9 97 0.3 W 9 13 5 7 1015.8 1015.8 15.8
03/12:31am 13.5 12.7 13.0 97 0.3 WSW 9 11 5 6 1015.8 1015.8 15.6
03/12:30am 13.5 12.7 13.0 97 0.3 WSW 9 11 5 6 1015.8 1015.8 15.6
03/12:00am 13.5 13.1 13.0 97 0.3 WSW 7 13 4 7 1016.1 1016.1 15.4
 
Date/Time
EST
Temp
°C
App
Temp
°C
Dew
Point
°C
Rel
Hum
%
Delta-T
°C
Wind Press
QNH
hPa
Press
MSL
hPa
Rain since
9am
mm
Dir  Spd
km/h
Gust
km/h
Spd
kts
Gust
kts
02/11:30pm 13.5 13.1 13.0 97 0.3 W 7 11 4 6 1016.4 1016.4 15.2
02/11:13pm 13.5 12.7 12.9 96 0.3 W 9 13 5 7 1016.5 1016.5 15.2
02/11:00pm 13.5 12.7 13.0 97 0.3 W 9 15 5 8 1016.5 1016.5 15.2
02/10:30pm 13.5 12.4 13.0 97 0.3 W 11 15 6 8 1016.5 1016.5 15.2
02/10:11pm 13.4 12.6 12.9 97 0.3 W 9 13 5 7 1016.6 1016.6 15.2
02/10:00pm 13.5 13.1 13.0 97 0.3 W 7 11 4 6 1016.7 1016.7 15.2
02/09:50pm 13.5 13.1 13.0 97 0.3 W 7 11 4 6 1016.7 1016.7 15.2
02/09:44pm 13.4 12.6 12.9 97 0.3 W 9 17 5 9 1016.6 1016.6 15.0
02/09:30pm 13.5 13.3 13.0 97 0.3 W 6 11 3 6 1016.5 1016.5 14.4
02/09:27pm 13.5 13.3 13.0 97 0.3 W 6 11 3 6 1016.6 1016.6 13.6
02/09:26pm 13.5 13.3 13.0 97 0.3 W 6 9 3 5 1016.7 1016.7 13.6
02/09:14pm 13.5 13.3 13.0 97 0.3 W 6 9 3 5 1016.7 1016.7 13.4
02/09:13pm 13.5 13.3 13.0 97 0.3 W 6 9 3 5 1016.7 1016.7 13.4
02/09:00pm 13.5 14.4 13.0 97 0.3 CALM 0 0 0 0 1016.8 1016.8 13.2
02/08:58pm 13.5 14.5 13.2 98 0.2 CALM 0 0 0 0 1016.8 1016.8 13.2
02/08:30pm 13.4 14.3 12.9 97 0.3 CALM 0 0 0 0 1016.8 1016.8 12.6
02/08:24pm 13.3 14.2 12.8 97 0.3 CALM 0 0 0 0 1016.8 1016.8 12.0
02/08:00pm 13.3 12.8 12.8 97 0.3 WSW 7 11 4 6 1016.8 1016.8 11.6
02/07:45pm 13.3 12.8 12.8 97 0.3 WSW 7 11 4 6 1016.9 1016.9 11.6
02/07:34pm 13.2 12.7 12.7 97 0.3 SW 7 11 4 6 1017.0 1017.0 11.6
02/07:30pm 13.2 12.7 12.6 96 0.3 SW 7 11 4 6 1017.0 1017.0 11.6
02/07:20pm 13.2 12.7 12.6 96 0.3 SW 7 13 4 7 1017.0 1017.0 11.6
02/07:00pm 13.2 11.9 12.6 96 0.3 WSW 11 15 6 8 1016.9 1016.9 11.6
02/06:53pm 13.1 11.8 12.5 96 0.3 WSW 11 13 6 7 1016.9 1016.9 11.6
02/06:30pm 13.2 12.3 12.6 96 0.3 WSW 9 13 5 7 1017.2 1017.2 11.0
02/06:27pm 13.2 12.3 12.6 96 0.3 W 9 13 5 7 1017.2 1017.2 11.0
02/06:24pm 13.2 12.3 12.7 97 0.3 WSW 9 13 5 7 1017.2 1017.2 11.0
02/06:00pm 13.2 12.7 12.7 97 0.3 WSW 7 11 4 6 1017.0 1017.0 10.8
02/05:30pm 13.3 12.1 12.8 97 0.3 WSW 11 13 6 7 1017.0 1017.0 10.8
02/05:25pm 13.4 12.6 12.9 97 0.3 WSW 9 13 5 7 1017.0 1017.0 10.8
02/05:24pm 13.5 12.7 13.0 97 0.3 WSW 9 13 5 7 1017.0 1017.0 10.8
02/05:00pm 13.7 13.4 13.2 97 0.3 WSW 7 13 4 7 1016.9 1016.9 10.4
02/04:57pm 13.7 13.3 13.1 96 0.3 WSW 7 13 4 7 1017.0 1017.0 10.2
02/04:47pm 13.7 13.0 13.2 97 0.3 WSW 9 15 5 8 1016.8 1016.8 10.0
02/04:30pm 13.9 13.6 13.3 96 0.3 WSW 7 11 4 6 1016.8 1016.8 9.8
02/04:00pm 14.0 13.7 13.4 96 0.3 WSW 7 11 4 6 1016.9 1016.9 9.6
02/03:33pm 13.9 13.2 13.3 96 0.3 WSW 9 15 5 8 1017.0 1017.0 9.6
02/03:30pm 13.9 13.2 13.3 96 0.3 WSW 9 15 5 8 1017.1 1017.1 9.6
02/03:00pm 14.0 13.7 13.2 95 0.4 SSW 7 11 4 6 1017.2 1017.2 9.0
02/02:30pm 14.1 13.4 13.3 95 0.4 WSW 9 15 5 8 1017.6 1017.6 8.8
02/02:00pm 13.9 12.8 13.1 95 0.4 W 11 15 6 8 1018.1 1018.1 8.2
02/01:30pm 13.9 13.2 13.3 96 0.3 W 9 11 5 6 1018.2 1018.2 7.6
02/01:00pm 13.8 13.7 13.2 96 0.3 SW 6 9 3 5 1018.3 1018.3 7.0
02/12:30pm 13.5 13.1 12.9 96 0.3 WSW 7 11 4 6 1018.6 1018.6 5.8
02/12:00pm 13.6 13.8 13.0 96 0.3 WSW 4 11 2 6 1019.1 1019.1 5.4
02/11:30am 13.4 13.1 12.8 96 0.3 WSW 6 9 3 5 1019.6 1019.6 5.0
02/11:00am 13.2 14.0 12.6 96 0.3 CALM 0 0 0 0 1020.1 1020.1 4.6
02/10:30am 12.8 12.2 12.2 96 0.3 W 7 11 4 6 1020.4 1020.4 4.0
02/10:00am 12.6 13.3 12.1 97 0.3 CALM 0 0 0 0 1020.7 1020.7 2.8
02/09:52am 12.5 12.7 12.0 97 0.3 WSW 2 7 1 4 1020.7 1020.7 2.4
02/09:31am 12.5 12.0 12.0 97 0.3 W 6 11 3 6 1020.8 1020.8 1.6
02/09:30am 12.5 12.0 12.0 97 0.3 W 6 11 3 6 1020.8 1020.8 1.4
02/09:00am 12.3 11.2 11.8 97 0.3 W 9 17 5 9 1020.7 1020.7 8.2
02/08:30am 12.3 12.9 12.0 98 0.2 CALM 0 0 0 0 1020.4 1020.4 6.8
02/08:00am 12.2 11.7 11.9 98 0.2 W 6 9 3 5 1020.5 1020.5 6.0
02/07:30am 12.1 12.7 11.8 98 0.2 CALM 0 0 0 0 1020.6 1020.6 5.6
02/07:00am 12.1 12.7 11.8 98 0.2 CALM 0 0 0 0 1020.6 1020.6 5.2
02/06:30am 11.9 12.3 11.4 97 0.3 CALM 0 0 0 0 1020.6 1020.6 4.6
02/06:00am 11.8 12.2 11.3 97 0.3 CALM 0 0 0 0 1020.3 1020.3 4.2
02/05:30am 12.1 12.2 11.6 97 0.3 W 2 9 1 5 1020.3 1020.3 3.8
02/05:00am 11.8 12.3 11.5 98 0.2 CALM 0 0 0 0 1020.0 1020.0 3.4
02/04:30am 11.7 12.1 11.2 97 0.3 CALM 0 0 0 0 1019.7 1019.7 3.2
02/04:00am 11.9 12.3 11.4 97 0.3 CALM 0 0 0 0 1020.0 1020.0 3.2
02/03:30am 12.2 12.7 11.7 97 0.3 CALM 0 0 0 0 1020.4 1020.4 3.2
02/03:00am 12.1 12.6 11.6 97 0.3 CALM 0 0 0 0 1020.4 1020.4 3.0
02/02:30am 12.1 12.6 11.5 96 0.3 CALM 0 0 0 0 1020.7 1020.7 2.8
02/02:00am 12.2 12.7 11.7 97 0.3 CALM 0 0 0 0 1020.9 1020.9 2.2
02/01:30am 12.2 12.7 11.6 96 0.3 CALM 0 0 0 0 1020.9 1020.9 2.0
02/01:00am 12.4 13.0 11.8 96 0.3 CALM 0 0 0 0 1021.3 1021.3 1.4
02/12:30am 12.4 13.0 11.8 96 0.3 CALM 0 0 0 0 1021.4 1021.4 1.0
02/12:00am 12.5 13.0 11.7 95 0.4 CALM 0 0 0 0 1021.6 1021.6 0.4
 
Date/Time
EST
Temp
°C
App
Temp
°C
Dew
Point
°C
Rel
Hum
%
Delta-T
°C
Wind Press
QNH
hPa
Press
MSL
hPa
Rain since
9am
mm
Dir  Spd
km/h
Gust
km/h
Spd
kts
Gust
kts
01/11:30pm 12.5 13.0 11.7 95 0.4 CALM 0 2 0 1 1021.4 1021.4 0.2
01/11:00pm 12.8 12.3 12.0 95 0.4 NW 6 9 3 5 1021.8 1021.8 0.2
01/10:30pm 13.3 12.5 11.7 90 0.9 WNW 7 11 4 6 1022.0 1022.0 0.0
01/10:00pm 13.2 13.8 11.8 91 0.7 CALM 0 0 0 0 1021.8 1021.8 0.0
01/09:30pm 13.4 13.2 11.8 90 0.9 W 4 11 2 6 1021.9 1021.9 0.0
01/09:00pm 13.7 12.6 12.1 90 0.9 WNW 9 11 5 6 1022.3 1022.3 0.0
01/08:30pm 13.7 13.1 11.6 87 1.1 WNW 6 11 3 6 1022.4 1022.4 0.0
01/08:00pm 13.1 12.3 11.7 91 0.7 W 7 9 4 5 1022.2 1022.2 0.0
01/07:30pm 12.8 13.2 11.4 91 0.7 CALM 0 0 0 0 1021.4 1021.4 0.0
01/07:00pm 12.8 13.2 11.2 90 0.8 CALM 0 0 0 0 1022.0 1022.0 0.0

Other formats

Comma delimited format used in spreadsheet applications
http://www.bom.gov.au/fwo/IDN60801/IDN60801.94799.axf

JavaScript Object Notation format (JSON) in row-major order
http://www.bom.gov.au/fwo/IDN60801/IDN60801.94799.json

Data quality

Most of these data are generated automatically and are frequently updated. Quality checks on data are not normally performed. It is possible for incorrect values to appear. Refer to information at About Latest Weather Observations and please check the disclaimer before using these data.